Time;durP1;ratioP1;P1;durP2;ratioP2;P2;SDS_P1;SDS_P2;PMS_P1;PMS_P2;Temp;Humidity;BMP_temperature;BMP_pressure;BME280_temperature;BME280_humidity;BME280_pressure;Samples;Min_cycle;Max_cycle;Signal;HPM_P1;HPM_P2
2023/04/29 00:01:32;;;;;;;6.88;3.38;;;;;;;20.81;55.36;101017.75;5053657;28;20049;-57
2023/04/29 00:04:00;;;;;;;6.15;3.70;;;;;;;20.81;55.41;101024.00;5053696;28;20052;-58
2023/04/29 00:06:28;;;;;;;5.72;3.60;;;;;;;20.81;55.29;101009.69;5053421;28;20048;-58
2023/04/29 00:08:55;;;;;;;4.57;2.88;;;;;;;20.81;55.34;101009.69;5053075;28;20049;-58
2023/04/29 00:11:22;;;;;;;5.25;3.33;;;;;;;20.82;55.33;101014.06;5053108;28;20044;-58
2023/04/29 00:13:50;;;;;;;4.43;3.15;;;;;;;20.81;55.15;100998.94;5053002;28;20057;-57
2023/04/29 00:16:17;;;;;;;4.72;3.00;;;;;;;20.81;55.33;101001.63;5053071;28;20048;-57
2023/04/29 00:18:45;;;;;;;4.07;3.25;;;;;;;20.81;55.27;100988.16;5052998;28;20554;-58
2023/04/29 00:21:12;;;;;;;4.43;3.22;;;;;;;20.80;55.21;100989.16;5053098;28;20119;-58
2023/04/29 00:23:40;;;;;;;4.78;2.97;;;;;;;20.79;55.22;100977.56;5054148;28;20056;-58
2023/04/29 00:26:07;;;;;;;4.97;3.17;;;;;;;20.80;54.98;100979.25;5052717;28;20052;-57
2023/04/29 00:28:35;;;;;;;4.53;3.33;;;;;;;20.80;55.21;100978.41;5052971;28;20503;-57
2023/04/29 00:31:02;;;;;;;5.45;3.35;;;;;;;20.79;55.20;100969.47;5052641;28;20075;-56
2023/04/29 00:33:30;;;;;;;4.40;2.97;;;;;;;20.80;55.17;100964.94;5052012;28;20052;-56
2023/04/29 00:35:57;;;;;;;5.35;3.35;;;;;;;20.80;55.03;100967.63;5053082;28;20390;-56
2023/04/29 00:38:24;;;;;;;5.28;3.40;;;;;;;20.79;55.08;100968.63;5052932;28;20066;-56
2023/04/29 00:40:52;;;;;;;4.20;3.10;;;;;;;20.79;55.14;100965.94;5053375;28;20041;-57
2023/04/29 00:43:19;;;;;;;5.68;3.22;;;;;;;20.79;55.26;100965.94;5052932;28;20056;-56
2023/04/29 00:45:47;;;;;;;4.57;3.55;;;;;;;20.79;55.03;100960.56;5044794;28;20041;-56
2023/04/29 00:48:15;;;;;;;4.00;3.03;;;;;;;20.79;55.19;100963.25;5031136;28;20065;-56
2023/04/29 00:50:43;;;;;;;5.32;3.72;;;;;;;20.78;55.20;100969.59;5033231;28;20396;-58
2023/04/29 00:53:13;;;;;;;4.05;2.72;;;;;;;20.77;55.00;100979.50;5031972;28;20049;-57
2023/04/29 00:55:42;;;;;;;4.18;3.22;;;;;;;20.78;55.14;100980.38;5033164;28;20048;-58
2023/04/29 00:58:11;;;;;;;5.18;3.50;;;;;;;20.78;55.02;100980.38;5033530;28;20045;-58
2023/04/29 01:00:40;;;;;;;5.10;3.50;;;;;;;20.79;55.25;100984.78;5041297;28;20356;-58
2023/04/29 01:03:08;;;;;;;5.95;3.50;;;;;;;20.78;55.29;100983.06;5053374;28;20041;-58
2023/04/29 01:05:35;;;;;;;4.53;3.40;;;;;;;20.78;55.13;100989.28;5052926;28;20049;-58
2023/04/29 01:08:18;;;;;;;5.63;3.55;;;;;;;20.78;55.02;101002.72;5051699;28;20510;-57
2023/04/29 01:10:57;;;;;;;5.47;3.42;;;;;;;20.77;55.09;101009.13;5055114;28;20057;-56
2023/04/29 01:13:30;;;;;;;4.47;3.05;;;;;;;20.78;55.22;101000.03;5038492;28;20057;-56
2023/04/29 01:16:03;;;;;;;6.00;2.95;;;;;;;20.78;55.34;100996.50;5055362;28;20060;-56
2023/04/29 01:18:52;;;;;;;4.20;3.13;;;;;;;20.78;54.90;100991.13;5056657;28;20045;-56
2023/04/29 01:21:24;;;;;;;5.82;3.75;;;;;;;20.78;55.28;100980.38;5055555;28;20049;-57
2023/04/29 01:23:54;;;;;;;5.40;3.50;;;;;;;20.78;55.07;100972.28;5055316;28;20053;-58
2023/04/29 01:26:27;;;;;;;5.28;3.42;;;;;;;20.77;55.19;100968.75;5055059;28;20049;-58
2023/04/29 01:29:27;;;;;;;5.13;3.40;;;;;;;20.77;55.06;100970.59;5055253;28;20053;-56
2023/04/29 01:32:04;;;;;;;6.87;3.47;;;;;;;20.77;55.32;100962.53;5055506;28;20419;-56
2023/04/29 01:34:44;;;;;;;5.88;3.88;;;;;;;20.77;55.28;100967.91;5035013;28;20064;-56
2023/04/29 01:37:26;;;;;;;4.63;3.22;;;;;;;20.77;55.05;100959.84;5034941;28;20421;-56
2023/04/29 01:39:54;;;;;;;5.53;3.03;;;;;;;20.78;55.23;100958.84;5036381;28;20045;-57
2023/04/29 01:42:54;;;;;;;5.85;3.63;;;;;;;20.77;55.19;100954.44;5035018;28;20060;-57
2023/04/29 01:45:22;;;;;;;4.72;3.08;;;;;;;20.77;55.19;100962.53;5041446;28;20055;-58
2023/04/29 01:47:54;;;;;;;4.95;3.58;;;;;;;20.76;55.08;100958.16;5038421;28;20045;-58
2023/04/29 01:50:22;;;;;;;5.65;3.40;;;;;;;20.77;55.32;100951.75;5034913;28;20045;-57
2023/04/29 01:52:49;;;;;;;4.43;3.30;;;;;;;20.77;55.30;100946.38;5034596;28;20068;-58
2023/04/29 01:55:17;;;;;;;4.60;3.45;;;;;;;20.76;55.24;100950.91;5035851;28;20045;-57
2023/04/29 01:58:07;;;;;;;5.80;3.05;;;;;;;20.76;55.35;100953.59;5035671;28;20057;-58
2023/04/29 02:00:59;;;;;;;4.38;3.08;;;;;;;20.75;55.41;100943.84;5034861;28;20467;-56
2023/04/29 02:03:30;;;;;;;4.05;3.53;;;;;;;20.76;55.34;100947.38;5034511;28;20053;-56
2023/04/29 02:05:59;;;;;;;4.10;3.30;;;;;;;20.76;55.31;100939.31;5034553;28;20045;-56
2023/04/29 02:08:26;;;;;;;6.47;3.58;;;;;;;20.76;55.20;100944.69;5034393;28;20132;-56
2023/04/29 02:10:57;;;;;;;4.60;3.13;;;;;;;20.76;55.18;100950.91;5034651;28;20045;-57
2023/04/29 02:13:38;;;;;;;4.95;3.25;;;;;;;20.75;55.40;100938.47;5034722;28;20068;-57
2023/04/29 02:16:10;;;;;;;5.25;3.15;;;;;;;20.74;55.42;100932.22;5035629;28;20045;-58
2023/04/29 02:18:42;;;;;;;6.20;3.22;;;;;;;20.76;55.36;100939.31;5034897;28;20109;-57
2023/04/29 02:21:11;;;;;;;4.85;3.20;;;;;;;20.74;55.50;100934.94;5016504;28;20113;-56
2023/04/29 02:23:38;;;;;;;4.95;3.70;;;;;;;20.74;55.44;100929.53;5045843;28;20061;-56
2023/04/29 02:26:06;;;;;;;6.45;3.60;;;;;;;20.74;55.46;100945.69;5055275;28;20045;-56
2023/04/29 02:28:33;;;;;;;7.68;4.20;;;;;;;20.75;55.43;100943.84;5054558;28;20467;-56
2023/04/29 02:31:01;;;;;;;4.70;3.47;;;;;;;20.75;55.36;100943.84;5054080;28;20498;-58
2023/04/29 02:33:30;;;;;;;4.10;3.33;;;;;;;20.74;55.46;100932.22;5054127;28;20064;-56
2023/04/29 02:35:58;;;;;;;5.57;3.47;;;;;;;20.74;55.47;100934.03;5055469;28;20509;-57
2023/04/29 02:38:25;;;;;;;5.57;3.90;;;;;;;20.74;55.40;100932.22;5054884;28;20041;-57
2023/04/29 02:40:53;;;;;;;6.22;4.07;;;;;;;20.74;55.50;100923.28;5055044;28;20053;-55
2023/04/29 02:43:21;;;;;;;3.88;3.00;;;;;;;20.73;55.46;100925.13;5055248;28;20380;-55
2023/04/29 02:45:48;;;;;;;4.85;3.75;;;;;;;20.74;55.56;100926.84;5054300;28;20056;-55
2023/04/29 02:48:16;;;;;;;5.93;3.58;;;;;;;20.74;55.63;100929.53;5041628;28;20049;-55
2023/04/29 02:50:43;;;;;;;5.75;4.13;;;;;;;20.73;55.62;100927.81;5034892;28;20041;-56
2023/04/29 02:53:11;;;;;;;6.47;3.75;;;;;;;20.73;55.58;100919.75;5034322;28;20506;-56
2023/04/29 02:55:38;;;;;;;5.10;3.47;;;;;;;20.73;55.49;100917.06;5037611;28;20049;-57
2023/04/29 02:58:09;;;;;;;5.15;3.60;;;;;;;20.73;55.59;100922.44;5054830;28;20368;-56
2023/04/29 03:00:36;;;;;;;4.25;3.22;;;;;;;20.73;55.59;100914.38;5053274;28;20045;-56
2023/04/29 03:03:04;;;;;;;4.35;3.78;;;;;;;20.74;55.67;100918.78;5054526;28;20056;-56
2023/04/29 03:05:31;;;;;;;4.38;3.17;;;;;;;20.74;55.56;100926.84;5053326;28;20053;-56
2023/04/29 03:07:59;;;;;;;6.18;3.85;;;;;;;20.74;55.59;100923.28;5055051;28;20049;-57
2023/04/29 03:10:27;;;;;;;4.82;3.30;;;;;;;20.73;55.58;100917.06;5052960;28;20180;-56
2023/04/29 03:12:55;;;;;;;6.30;4.10;;;;;;;20.73;55.64;100925.13;5052978;28;20049;-56
2023/04/29 03:15:22;;;;;;;5.43;3.90;;;;;;;20.73;55.68;100925.13;5053219;28;20506;-56
2023/04/29 03:17:50;;;;;;;4.82;3.03;;;;;;;20.74;55.53;100926.84;5053259;28;20048;-56
2023/04/29 03:20:18;;;;;;;4.13;3.30;;;;;;;20.74;55.73;100916.09;5053281;28;20053;-55
2023/04/29 03:22:45;;;;;;;4.65;3.50;;;;;;;20.76;55.79;100923.16;5036564;28;20045;-55
2023/04/29 03:25:13;;;;;;;4.35;3.17;;;;;;;20.76;55.63;100929.41;5054262;28;20483;-55
2023/04/29 03:27:41;;;;;;;6.10;3.75;;;;;;;20.76;55.83;100931.25;5053282;28;20064;-56
2023/04/29 03:30:09;;;;;;;7.22;4.22;;;;;;;20.75;56.13;100933.09;5052903;28;20053;-55
2023/04/29 03:32:43;;;;;;;5.93;4.28;;;;;;;20.76;55.92;100925.84;5052457;28;20060;-56
2023/04/29 03:35:11;;;;;;;5.10;3.65;;;;;;;20.75;55.73;100927.69;5053313;28;20044;-55
2023/04/29 03:38:20;;;;;;;5.60;3.58;;;;;;;20.76;55.83;100917.78;5053071;28;20068;-55
2023/04/29 03:40:48;;;;;;;5.82;4.20;;;;;;;20.77;56.31;100916.78;5053236;28;20044;-56
2023/04/29 03:43:17;;;;;;;5.03;4.38;;;;;;;20.76;56.44;100907.03;5052868;28;20048;-56
2023/04/29 03:45:44;;;;;;;6.90;4.60;;;;;;;20.76;56.20;100907.88;5052581;28;20052;-56
2023/04/29 03:48:15;;;;;;;5.13;4.22;;;;;;;20.75;56.19;100906.19;5048860;28;20423;-56
2023/04/29 03:50:43;;;;;;;6.55;4.25;;;;;;;20.76;56.11;100912.41;5043520;28;20475;-56
2023/04/29 03:53:11;;;;;;;5.40;4.20;;;;;;;20.75;56.17;100911.56;5054393;28;20060;-56
2023/04/29 03:55:38;;;;;;;5.60;4.90;;;;;;;20.74;56.07;100910.72;5050522;28;20057;-57
2023/04/29 03:58:06;;;;;;;5.78;3.65;;;;;;;20.73;56.10;100898.22;5033973;28;20060;-56
2023/04/29 04:00:33;;;;;;;4.97;4.32;;;;;;;20.74;56.05;100901.75;5032906;28;20046;-55
2023/04/29 04:03:04;;;;;;;7.13;4.32;;;;;;;20.74;56.00;100912.53;5016913;28;20438;-55
2023/04/29 04:05:34;;;;;;;6.70;4.40;;;;;;;20.72;56.03;100915.38;5032471;28;20518;-55
2023/04/29 04:08:07;;;;;;;5.18;4.55;;;;;;;20.74;55.97;100907.16;5032493;28;20060;-55
2023/04/29 04:10:53;;;;;;;7.15;4.57;;;;;;;20.72;55.94;100912.69;5032755;28;20053;-56
2023/04/29 04:13:29;;;;;;;5.18;3.97;;;;;;;20.72;55.90;100918.06;5032442;28;20064;-55
2023/04/29 04:15:57;;;;;;;6.68;4.65;;;;;;;20.73;55.91;100922.44;5032519;28;20446;-56
2023/04/29 04:18:24;;;;;;;6.60;4.20;;;;;;;20.72;55.98;100917.22;5032403;28;20045;-56
2023/04/29 04:20:51;;;;;;;6.03;4.25;;;;;;;20.73;55.83;100918.91;5033363;28;20048;-56
2023/04/29 04:23:19;;;;;;;6.97;4.25;;;;;;;20.72;55.87;100920.75;5033422;28;20053;-55
2023/04/29 04:25:47;;;;;;;6.35;4.80;;;;;;;20.71;55.77;100921.75;5032690;28;20064;-55
2023/04/29 04:28:37;;;;;;;6.05;4.53;;;;;;;20.72;55.83;100930.66;5033173;28;20384;-55
2023/04/29 04:31:09;;;;;;;6.07;4.25;;;;;;;20.71;55.65;100931.66;5032011;28;20054;-57
2023/04/29 04:33:36;;;;;;;7.78;5.07;;;;;;;20.71;55.62;100934.34;5043122;28;20053;-57
2023/04/29 04:36:04;;;;;;;9.60;4.60;;;;;;;20.70;55.75;100933.50;5053557;28;20048;-56
2023/04/29 04:38:32;;;;;;;5.85;3.88;;;;;;;20.71;55.84;100924.44;5052316;28;20402;-57
2023/04/29 04:41:07;;;;;;;6.80;4.70;;;;;;;20.71;55.74;100921.75;5052195;28;20055;-57
2023/04/29 04:43:37;;;;;;;5.53;4.03;;;;;;;20.71;55.81;100927.13;5051518;28;20060;-57
2023/04/29 04:46:13;;;;;;;6.13;4.32;;;;;;;20.71;55.55;100931.66;5052475;28;20061;-56
2023/04/29 04:48:53;;;;;;;5.15;4.07;;;;;;;20.71;55.72;100934.34;5051961;28;20049;-56
2023/04/29 04:51:21;;;;;;;6.38;4.20;;;;;;;20.70;55.79;100936.19;5030074;28;20038;-56
2023/04/29 04:53:49;;;;;;;8.00;4.90;;;;;;;20.70;55.65;100941.56;5032032;28;20064;-56
2023/04/29 04:56:21;;;;;;;5.72;4.13;;;;;;;20.70;55.71;100941.56;5032239;28;20059;-56
2023/04/29 04:58:49;;;;;;;6.65;4.03;;;;;;;20.70;55.66;100941.56;5031255;28;20506;-57
2023/04/29 05:01:16;;;;;;;6.35;4.15;;;;;;;20.70;55.60;100951.44;5031764;28;20042;-56
2023/04/29 05:03:43;;;;;;;6.65;4.30;;;;;;;20.70;55.57;100946.94;5050384;28;20041;-56
2023/04/29 05:06:11;;;;;;;4.88;4.10;;;;;;;20.70;55.67;100954.16;5051433;28;20060;-56
2023/04/29 05:08:41;;;;;;;6.05;4.03;;;;;;;20.70;55.56;100952.34;5051627;28;20044;-57
2023/04/29 05:11:17;;;;;;;6.57;4.78;;;;;;;20.69;55.65;100955.97;5052986;28;20149;-56
2023/04/29 05:13:51;;;;;;;6.05;4.45;;;;;;;20.70;55.71;100968.47;5051169;28;20060;-56
2023/04/29 05:16:19;;;;;;;5.60;4.60;;;;;;;20.69;55.55;100964.06;5051452;28;20049;-56
2023/04/29 05:18:50;;;;;;;6.55;4.47;;;;;;;20.68;55.65;100959.69;5051910;28;20063;-57
2023/04/29 05:21:17;;;;;;;5.78;3.97;;;;;;;20.69;55.63;100961.38;5051147;28;20040;-55
2023/04/29 05:23:46;;;;;;;5.35;4.35;;;;;;;20.69;55.78;100961.38;5051000;28;20053;-55
2023/04/29 05:26:13;;;;;;;5.88;3.92;;;;;;;20.68;55.67;100956.97;5052901;28;20464;-55
2023/04/29 05:28:41;;;;;;;5.85;3.95;;;;;;;20.71;55.73;100962.09;5052450;28;20041;-55
2023/04/29 05:31:09;;;;;;;7.40;4.00;;;;;;;20.71;55.82;100959.41;5051642;28;20510;-56
2023/04/29 05:33:36;;;;;;;4.88;3.35;;;;;;;20.70;55.64;100957.72;5052959;28;20045;-56
2023/04/29 05:36:05;;;;;;;5.88;4.40;;;;;;;20.72;55.93;100954.88;5051452;28;20056;-56
2023/04/29 05:38:32;;;;;;;6.53;3.45;;;;;;;20.72;55.99;100952.19;5051491;28;20061;-56
2023/04/29 05:41:05;;;;;;;4.97;4.40;;;;;;;20.71;55.76;100959.41;5051635;28;20060;-56
2023/04/29 05:43:53;;;;;;;6.60;4.35;;;;;;;20.71;55.85;100950.50;5050859;28;20487;-57
2023/04/29 05:46:21;;;;;;;6.60;4.65;;;;;;;20.70;55.86;100946.94;5050856;28;20533;-56
2023/04/29 05:48:50;;;;;;;6.25;3.97;;;;;;;20.70;55.64;100940.69;5052987;28;20067;-56
2023/04/29 05:51:17;;;;;;;6.15;3.90;;;;;;;20.71;55.62;100945.09;5038381;28;20045;-56
2023/04/29 05:53:44;;;;;;;8.82;4.55;;;;;;;20.69;55.84;100950.59;5014443;28;20538;-56
2023/04/29 05:56:12;;;;;;;6.03;3.80;;;;;;;20.70;55.69;100951.44;5042512;28;20041;-56
2023/04/29 05:58:39;;;;;;;8.95;5.30;;;;;;;20.70;55.67;100957.72;5054426;28;20049;-56
2023/04/29 06:01:07;;;;;;;5.18;4.05;;;;;;;20.70;55.68;100973.84;5055196;28;20544;-56
2023/04/29 06:03:34;;;;;;;5.40;4.35;;;;;;;20.69;55.58;100972.13;5054168;28;20049;-56
2023/04/29 06:06:27;;;;;;;7.07;4.18;;;;;;;20.70;55.68;100968.47;5054201;28;20056;-57
2023/04/29 06:09:07;;;;;;;5.38;4.05;;;;;;;20.69;55.56;100955.97;5054611;28;20049;-56
2023/04/29 06:11:50;;;;;;;;;;;;;;;20.70;55.67;100956.84;5054170;28;20049;-56
2023/04/29 06:14:20;;;;;;;6.78;4.07;;;;;;;20.69;55.66;100960.53;5054374;28;19925;-56
2023/04/29 06:16:48;;;;;;;4.95;3.65;;;;;;;20.68;55.76;100954.28;5054952;28;20053;-57
2023/04/29 06:19:15;;;;;;;5.95;3.60;;;;;;;20.69;55.62;100966.75;5055441;28;20052;-56
2023/04/29 06:21:43;;;;;;;5.20;3.83;;;;;;;20.69;55.70;100972.13;5054131;28;20510;-55
2023/04/29 06:24:10;;;;;;;5.85;3.75;;;;;;;20.70;55.67;100968.47;5054246;28;20056;-55
2023/04/29 06:26:37;;;;;;;8.43;4.72;;;;;;;20.71;55.64;100974.69;5053777;28;20483;-55
2023/04/29 06:29:05;;;;;;;4.93;3.80;;;;;;;20.70;55.78;100981.94;5037720;28;20104;-56
2023/04/29 06:31:35;;;;;;;5.07;4.38;;;;;;;20.71;55.72;100977.41;5054837;28;20045;-56
2023/04/29 06:34:04;;;;;;;7.20;3.92;;;;;;;20.70;55.72;100968.47;5054168;28;20053;-56
2023/04/29 06:36:36;;;;;;;5.13;3.92;;;;;;;20.71;55.65;100974.69;5053703;28;20056;-57
2023/04/29 06:39:19;;;;;;;6.68;4.38;;;;;;;20.71;55.70;100985.47;5053903;28;20060;-56
2023/04/29 06:42:13;;;;;;;5.85;4.40;;;;;;;20.70;55.70;100975.66;5055006;28;20072;-56
2023/04/29 06:45:06;;;;;;;5.70;3.53;;;;;;;20.71;55.73;100975.53;5054306;28;20072;-55
2023/04/29 06:48:00;;;;;;;5.53;4.28;;;;;;;20.71;55.66;100961.25;5055257;28;20067;-56
2023/04/29 06:50:55;;;;;;;5.40;4.28;;;;;;;20.70;55.57;100951.44;5053673;28;20053;-56
2023/04/29 06:53:23;;;;;;;5.50;3.53;;;;;;;20.70;55.69;100951.44;5033613;28;20041;-56
2023/04/29 06:55:50;;;;;;;5.10;3.55;;;;;;;20.70;55.66;100946.06;5034757;28;20060;-56
2023/04/29 06:58:19;;;;;;;5.22;3.85;;;;;;;20.70;55.67;100951.44;5051124;28;20056;-57
2023/04/29 07:00:48;;;;;;;5.93;3.72;;;;;;;20.68;55.68;100932.78;5035037;28;20045;-56
2023/04/29 07:03:17;;;;;;;6.10;3.65;;;;;;;20.68;55.64;100930.09;5045644;28;20056;-57
2023/04/29 07:05:45;;;;;;;4.97;4.43;;;;;;;20.70;55.67;100938.00;5054868;28;20049;-57
2023/04/29 07:08:13;;;;;;;5.88;4.00;;;;;;;20.70;55.83;100949.66;5053798;28;20487;-56
2023/04/29 07:10:40;;;;;;;5.20;3.38;;;;;;;20.70;55.80;100954.16;5054499;28;20066;-55
2023/04/29 07:13:07;;;;;;;5.65;4.30;;;;;;;20.69;55.84;100964.06;5052758;28;20041;-56
2023/04/29 07:15:36;;;;;;;7.25;4.57;;;;;;;20.69;56.07;100974.81;5054721;28;20052;-57
2023/04/29 07:18:04;;;;;;;5.88;3.90;;;;;;;20.71;55.95;100985.47;5053135;28;20048;-56
2023/04/29 07:20:35;;;;;;;7.53;3.67;;;;;;;20.69;55.77;100982.88;5055056;28;20048;-56
2023/04/29 07:23:04;;;;;;;6.18;3.83;;;;;;;20.70;55.83;100995.38;5053013;28;20060;-55
2023/04/29 07:25:32;;;;;;;5.22;3.63;;;;;;;20.69;55.95;100993.66;5053999;28;20045;-56
2023/04/29 07:27:59;;;;;;;6.13;4.15;;;;;;;20.70;55.96;101008.81;5053102;28;20063;-57
2023/04/29 07:30:27;;;;;;;5.30;4.00;;;;;;;20.71;55.84;101012.38;5052909;28;20048;-56
2023/04/29 07:32:54;;;;;;;6.47;4.35;;;;;;;20.71;55.77;101009.69;5053080;28;20060;-55
2023/04/29 07:35:22;;;;;;;6.47;4.10;;;;;;;20.71;55.84;101013.22;5052629;28;20046;-56
2023/04/29 07:37:49;;;;;;;5.70;4.28;;;;;;;20.71;55.86;101018.59;5054336;28;20049;-56
2023/04/29 07:40:16;;;;;;;6.88;4.75;;;;;;;20.70;55.68;101010.63;5052873;28;20055;-57
2023/04/29 07:42:44;;;;;;;4.70;3.72;;;;;;;20.71;55.84;101015.06;5052381;28;20048;-57
2023/04/29 07:45:12;;;;;;;5.30;4.43;;;;;;;20.71;55.84;101013.22;5036779;28;20053;-56
2023/04/29 07:47:40;;;;;;;5.75;4.15;;;;;;;20.71;55.67;101015.91;5052684;28;20068;-56
2023/04/29 07:50:08;;;;;;;4.95;3.22;;;;;;;20.70;55.64;101013.34;5053939;28;20049;-56
2023/04/29 07:52:35;;;;;;;4.75;3.45;;;;;;;20.71;55.71;101005.13;5048151;28;20045;-56
2023/04/29 07:55:03;;;;;;;7.53;3.83;;;;;;;20.72;55.65;101009.53;5034725;28;20098;-57
2023/04/29 07:57:30;;;;;;;6.15;4.07;;;;;;;20.71;55.69;101018.59;5032328;28;20049;-57
2023/04/29 07:59:58;;;;;;;4.80;3.03;;;;;;;20.73;55.80;101021.97;5032159;28;20045;-56
2023/04/29 08:02:25;;;;;;;9.60;3.80;;;;;;;20.73;55.75;101021.97;5031985;28;20049;-54
2023/04/29 08:04:54;;;;;;;6.60;3.33;;;;;;;20.74;56.14;101023.72;5032134;28;20053;-55
2023/04/29 08:07:23;;;;;;;7.90;3.85;;;;;;;20.76;55.90;101030.78;5032778;28;20065;-56
2023/04/29 08:09:51;;;;;;;5.55;3.13;;;;;;;20.76;55.92;101042.41;5031663;28;20431;-55
2023/04/29 08:12:18;;;;;;;4.57;2.67;;;;;;;20.78;55.92;101042.25;5031914;28;20054;-56
2023/04/29 08:14:45;;;;;;;6.65;3.53;;;;;;;20.77;55.87;101038.72;5033819;28;20053;-55
2023/04/29 08:17:13;;;;;;;6.88;3.47;;;;;;;20.78;55.99;101043.09;5033548;28;20041;-56
2023/04/29 08:19:40;;;;;;;8.93;4.18;;;;;;;20.79;56.15;101043.97;5031666;28;20050;-56
2023/04/29 08:22:10;;;;;;;8.85;3.97;;;;;;;20.79;55.97;101041.28;5033368;28;20049;-55
2023/04/29 08:24:37;;;;;;;6.53;3.17;;;;;;;20.79;56.01;101042.13;5037101;28;20049;-56
2023/04/29 08:27:04;;;;;;;5.10;3.40;;;;;;;20.80;55.90;101037.59;5053436;28;20052;-56
2023/04/29 08:29:32;;;;;;;8.27;3.72;;;;;;;20.79;55.89;101041.28;5052959;28;20048;-57
2023/04/29 08:31:59;;;;;;;10.27;6.30;;;;;;;20.79;55.30;101054.75;5053090;28;20064;-58
2023/04/29 08:34:28;;;;;;;9.82;6.28;;;;;;;20.77;55.61;101048.63;5053280;28;20041;-57
2023/04/29 08:36:56;;;;;;;15.43;6.85;;;;;;;20.74;55.38;101045.22;5052978;28;20498;-57
2023/04/29 08:39:24;;;;;;;8.90;6.60;;;;;;;20.72;55.03;101047.19;5052526;28;20052;-57
2023/04/29 08:41:53;;;;;;;11.23;6.32;;;;;;;20.72;55.14;101039.13;5052459;28;20068;-57
2023/04/29 08:44:21;;;;;;;9.07;6.07;;;;;;;20.71;55.19;101040.13;5053139;28;20041;-58
2023/04/29 08:46:49;;;;;;;8.02;5.93;;;;;;;20.72;55.32;101046.34;5052814;28;20048;-58
2023/04/29 08:49:17;;;;;;;8.73;5.05;;;;;;;20.72;55.53;101040.97;5052663;28;20052;-56
2023/04/29 08:51:48;;;;;;;7.38;4.82;;;;;;;20.72;55.54;101041.81;5053106;28;20052;-56
2023/04/29 08:54:15;;;;;;;9.27;4.38;;;;;;;20.73;55.64;101048.03;5040812;28;20041;-55
2023/04/29 08:56:46;;;;;;;7.57;4.20;;;;;;;20.74;55.54;101038.97;5049389;28;20044;-55
2023/04/29 08:59:15;;;;;;;9.60;4.68;;;;;;;20.75;55.43;101040.69;5053242;28;20041;-57
2023/04/29 09:01:49;;;;;;;6.88;4.47;;;;;;;20.75;55.32;101038.00;5052740;28;20045;-57
2023/04/29 09:04:46;;;;;;;8.15;4.28;;;;;;;20.76;55.44;101039.69;5052685;28;20395;-57
2023/04/29 09:07:15;;;;;;;7.32;4.00;;;;;;;20.78;55.78;101042.25;5052151;28;20048;-57
2023/04/29 09:09:42;;;;;;;6.10;3.72;;;;;;;20.79;55.84;101036.75;5052298;28;20048;-57
2023/04/29 09:12:10;;;;;;;5.68;3.67;;;;;;;20.80;55.64;101037.59;5052528;28;20041;-57
2023/04/29 09:14:37;;;;;;;9.57;4.40;;;;;;;20.80;56.16;101041.13;5052456;28;20063;-57
2023/04/29 09:17:05;;;;;;;12.95;4.95;;;;;;;20.81;56.54;101039.28;5051458;28;20056;-57
2023/04/29 09:19:34;;;;;;;5.70;4.28;;;;;;;20.80;56.63;101032.22;5052957;28;20044;-56
2023/04/29 09:22:03;;;;;;;8.13;4.18;;;;;;;20.79;56.55;101030.53;5052072;28;20509;-57
2023/04/29 09:24:30;;;;;;;7.93;4.35;;;;;;;20.79;56.51;101030.53;5052047;28;20054;-57
2023/04/29 09:26:59;;;;;;;8.45;4.20;;;;;;;20.79;56.22;101025.97;5052362;28;20426;-57
2023/04/29 09:29:26;;;;;;;6.43;3.65;;;;;;;20.79;56.23;101019.75;5051970;28;20049;-56
2023/04/29 09:31:54;;;;;;;6.03;3.78;;;;;;;20.78;56.22;101018.03;5055422;28;20059;-56
2023/04/29 09:34:36;;;;;;;7.13;3.92;;;;;;;20.79;56.33;101019.75;5056053;28;20053;-56
2023/04/29 09:37:23;;;;;;;7.43;4.57;;;;;;;20.77;56.04;101008.25;5054543;28;20052;-55
2023/04/29 09:39:50;;;;;;;6.00;3.67;;;;;;;20.78;56.08;101018.03;5055748;28;20049;-56
2023/04/29 09:42:17;;;;;;;7.70;3.90;;;;;;;20.78;56.07;101012.66;5056233;28;20392;-56
2023/04/29 09:44:45;;;;;;;7.43;4.43;;;;;;;20.77;55.96;101017.19;5055544;28;20041;-55
2023/04/29 09:47:13;;;;;;;8.05;4.05;;;;;;;20.78;56.18;101023.41;5055997;28;20101;-56
2023/04/29 09:49:44;;;;;;;4.57;3.30;;;;;;;20.78;56.08;101007.28;5055799;28;20056;-57
2023/04/29 09:52:15;;;;;;;5.53;3.85;;;;;;;20.77;56.12;101000.19;5055476;28;20422;-57
2023/04/29 09:54:43;;;;;;;6.72;3.45;;;;;;;20.78;56.27;101001.88;5048201;28;20048;-57
2023/04/29 09:57:13;;;;;;;7.18;3.95;;;;;;;20.77;56.09;101003.72;5034268;28;20060;-57
2023/04/29 09:59:41;;;;;;;6.03;3.47;;;;;;;20.77;56.21;101000.19;5035478;28;20076;-56
2023/04/29 10:02:16;;;;;;;4.82;3.63;;;;;;;20.78;56.33;101004.56;5035568;28;20050;-57
2023/04/29 10:04:56;;;;;;;5.50;3.25;;;;;;;20.79;56.22;101003.63;5035353;28;20061;-56
2023/04/29 10:07:26;;;;;;;6.80;4.25;;;;;;;20.78;56.25;101000.03;5035545;28;20049;-57
2023/04/29 10:09:54;;;;;;;6.15;3.55;;;;;;;20.78;56.12;100997.34;5035545;28;20483;-56
2023/04/29 10:12:22;;;;;;;7.65;3.70;;;;;;;20.78;56.16;100997.34;5034973;28;20380;-56
2023/04/29 10:15:11;;;;;;;6.80;3.72;;;;;;;20.79;56.27;100987.47;5035039;28;20045;-55
2023/04/29 10:17:57;;;;;;;4.75;3.30;;;;;;;20.79;56.22;100982.09;5035531;28;20050;-56
2023/04/29 10:20:25;;;;;;;6.88;3.58;;;;;;;20.78;56.28;100981.22;5035523;28;20049;-55
2023/04/29 10:22:53;;;;;;;5.90;3.55;;;;;;;20.79;56.22;100982.94;5035202;28;20053;-55
2023/04/29 10:25:23;;;;;;;5.65;3.70;;;;;;;20.80;56.36;100983.78;5035246;28;20045;-56
2023/04/29 10:27:52;;;;;;;6.65;3.45;;;;;;;20.79;56.38;100976.72;5033877;28;20052;-55
2023/04/29 10:30:20;;;;;;;5.68;3.65;;;;;;;20.80;56.50;100970.34;5033750;28;20044;-56
2023/04/29 10:32:49;;;;;;;4.65;3.17;;;;;;;20.79;56.19;100972.16;5034799;28;20053;-57
2023/04/29 10:35:21;;;;;;;7.55;3.95;;;;;;;20.80;56.16;100970.34;5050753;28;20049;-56
2023/04/29 10:37:50;;;;;;;8.68;4.35;;;;;;;20.80;56.26;100968.50;5054704;28;20060;-57
2023/04/29 10:40:50;;;;;;;6.60;3.80;;;;;;;20.80;56.28;100967.63;5054626;28;20045;-56
2023/04/29 10:43:25;;;;;;;7.63;3.45;;;;;;;20.81;56.45;100955.88;5053874;28;20403;-56
2023/04/29 10:46:17;;;;;;;5.43;3.75;;;;;;;20.80;56.40;100949.66;5054920;28;20203;-56
2023/04/29 10:48:54;;;;;;;5.43;3.17;;;;;;;20.80;56.25;100952.34;5054410;28;20407;-55
2023/04/29 10:51:38;;;;;;;5.32;3.20;;;;;;;20.81;55.93;100954.03;5054372;28;20044;-57
2023/04/29 10:54:07;;;;;;;4.65;3.50;;;;;;;20.82;56.33;100960.25;5054535;28;20049;-57
2023/04/29 10:56:49;;;;;;;6.00;3.55;;;;;;;20.81;56.31;100950.50;5049918;28;20089;-57
2023/04/29 10:59:21;;;;;;;6.25;3.25;;;;;;;20.82;56.17;100946.81;5053893;28;20053;-56
2023/04/29 11:01:52;;;;;;;5.25;3.60;;;;;;;20.81;56.32;100945.97;5054539;28;20063;-57
2023/04/29 11:04:21;;;;;;;4.90;3.65;;;;;;;20.81;56.19;100943.28;5053762;28;20394;-57
2023/04/29 11:06:59;;;;;;;6.40;3.90;;;;;;;20.82;56.07;100942.28;5053942;28;20041;-57
2023/04/29 11:09:32;;;;;;;4.78;3.42;;;;;;;20.82;56.13;100942.28;5054335;28;20060;-56
2023/04/29 11:12:02;;;;;;;5.43;3.35;;;;;;;20.82;56.15;100936.03;5052858;28;20057;-56
2023/04/29 11:14:31;;;;;;;8.10;3.60;;;;;;;20.82;56.11;100938.75;5053870;28;20434;-55
2023/04/29 11:17:02;;;;;;;5.85;3.30;;;;;;;20.82;56.21;100939.59;5054170;28;20044;-55
2023/04/29 11:19:33;;;;;;;5.07;3.50;;;;;;;20.82;56.03;100939.59;5054055;28;20060;-57
2023/04/29 11:22:08;;;;;;;4.53;3.33;;;;;;;20.83;56.19;100938.63;5053804;28;20064;-57
2023/04/29 11:24:47;;;;;;;5.38;3.08;;;;;;;20.82;56.04;100944.97;5053713;28;20041;-57
2023/04/29 11:27:15;;;;;;;9.55;3.67;;;;;;;20.84;56.06;100958.31;5054409;28;20068;-57
2023/04/29 11:29:45;;;;;;;3.70;3.05;;;;;;;20.81;56.07;100945.97;5053637;28;20045;-56
2023/04/29 11:32:12;;;;;;;5.80;3.22;;;;;;;20.83;56.07;100953.91;5054310;28;20055;-56
2023/04/29 11:34:40;;;;;;;4.60;3.63;;;;;;;20.83;56.11;100945.84;5053390;28;20041;-56
2023/04/29 11:37:08;;;;;;;5.93;3.33;;;;;;;20.84;56.14;100942.16;5053444;28;20075;-56
2023/04/29 11:39:35;;;;;;;6.45;3.85;;;;;;;20.83;56.15;100940.47;5053904;28;20434;-56
2023/04/29 11:42:06;;;;;;;4.65;3.50;;;;;;;20.82;56.15;100939.59;5053408;28;20068;-56